Time;durP1;ratioP1;P1;durP2;ratioP2;P2;SDS_P1;SDS_P2;PMS_P1;PMS_P2;Temp;Humidity;BMP_temperature;BMP_pressure;BME280_temperature;BME280_humidity;BME280_pressure;Samples;Min_cycle;Max_cycle;Signal;HPM_P1;HPM_P2
2022/05/25 00:01:13;;;;;;;;;;;10.70;99.90;;;;;;5023142;28;19936;-77
2022/05/25 00:03:41;;;;;;;;;;;10.70;99.90;;;;;;5004866;28;19925;-77
2022/05/25 00:06:09;;;;;;;;;;;10.70;99.90;;;;;;5022477;28;19925;-78
2022/05/25 00:08:38;;;;;;;;;;;10.60;99.90;;;;;;5023509;28;19944;-78
2022/05/25 00:11:08;;;;;;;;;;;10.60;99.90;;;;;;5006373;28;19936;-79
2022/05/25 00:13:36;;;;;;;;;;;10.60;99.90;;;;;;5023484;28;19929;-79
2022/05/25 00:16:15;;;;;;;;;;;10.60;99.90;;;;;;5024716;28;20310;-79
2022/05/25 00:21:35;;;;;;;;;;;9.60;99.90;;;;;;5024198;28;19932;-79
2022/05/25 00:24:03;;;;;;;;;;;10.50;99.90;;;;;;5006801;28;19933;-78
2022/05/25 00:26:32;;;;;;;;;;;10.50;99.90;;;;;;5006335;28;20085;-79
2022/05/25 00:29:01;;;;;;;;;;;10.50;99.90;;;;;;5008808;28;20005;-79
2022/05/25 00:31:30;;;;;;;;;;;10.50;99.90;;;;;;5005868;28;19930;-77
2022/05/25 00:33:58;;;;;;;;;;;10.50;99.90;;;;;;5014035;28;19929;-78
2022/05/25 00:36:26;;;;;;;;;;;10.60;99.90;;;;;;4990053;28;19932;-77
2022/05/25 00:38:54;;;;;;;;;;;10.40;99.90;;;;;;5023083;28;19936;-78
2022/05/25 00:41:22;;;;;;;;;;;10.40;99.90;;;;;;5025586;28;19925;-77
2022/05/25 00:43:50;;;;;;;;;;;10.40;99.90;;;;;;5008039;28;19933;-78
2022/05/25 00:46:20;;;;;;;;;;;10.40;99.90;;;;;;5023283;28;19929;-78
2022/05/25 00:49:00;;;;;;;;;;;10.40;99.90;;;;;;5023581;28;19936;-77
2022/05/25 00:51:36;;;;;;;;;;;10.30;99.90;;;;;;5022192;28;19937;-79
2022/05/25 00:54:13;;;;;;;;;;;10.30;99.90;;;;;;5005924;28;19929;-79
2022/05/25 00:56:43;;;;;;;;;;;10.30;99.90;;;;;;4990391;28;20041;-78
2022/05/25 00:59:13;;;;;;;;;;;10.30;99.90;;;;;;5024373;28;19935;-77
2022/05/25 01:01:41;;;;;;;;;;;10.20;99.90;;;;;;5005854;28;19933;-78
2022/05/25 01:04:10;;;;;;;;;;;10.10;99.90;;;;;;5023817;28;19970;-78
2022/05/25 01:06:38;;;;;;;;;;;10.20;99.90;;;;;;5006217;28;19925;-79
2022/05/25 01:09:10;;;;;;;;;;;10.20;99.90;;;;;;5022044;28;19925;-79
2022/05/25 01:11:38;;;;;;;;;;;9.90;99.90;;;;;;4994725;28;19929;-79
2022/05/25 01:14:19;;;;;;;;;;;10.10;99.90;;;;;;5007134;28;19926;-78
2022/05/25 01:16:52;;;;;;;;;;;10.00;99.90;;;;;;4991313;28;19926;-79
2022/05/25 01:19:43;;;;;;;;;;;10.00;99.90;;;;;;5023792;28;20694;-79
2022/05/25 01:22:24;;;;;;;;;;;10.00;99.90;;;;;;5024229;28;19932;-80
2022/05/25 01:25:07;;;;;;;;;;;10.00;99.90;;;;;;5024575;28;19929;-78
2022/05/25 01:27:37;;;;;;;;;;;10.10;99.90;;;;;;5023557;28;19925;-78
2022/05/25 01:30:23;;;;;;;;;;;10.00;99.90;;;;;;4662797;28;10000803;-80
2022/05/25 01:33:06;;;;;;;;;;;10.00;99.90;;;;;;5025584;28;19929;-78
2022/05/25 01:35:34;;;;;;;;;;;9.90;99.90;;;;;;5016067;28;19944;-79
2022/05/25 01:38:08;;;;;;;;;;;9.90;99.90;;;;;;4990319;28;19925;-79
2022/05/25 01:40:59;;;;;;;;;;;10.00;99.90;;;;;;5023279;28;19936;-78
2022/05/25 01:43:35;;;;;;;;;;;9.90;99.90;;;;;;5006604;28;19930;-79
2022/05/25 01:46:10;;;;;;;;;;;10.30;99.90;;;;;;5025195;28;19926;-79
2022/05/25 01:48:39;;;;;;;;;;;9.90;99.90;;;;;;5024133;28;19926;-77
2022/05/25 01:51:11;;;;;;;;;;;10.00;99.90;;;;;;5023166;28;19945;-77
2022/05/25 01:53:41;;;;;;;;;;;10.00;99.90;;;;;;5024397;28;19926;-77
2022/05/25 01:56:10;;;;;;;;;;;10.00;99.90;;;;;;5006858;28;19929;-79
2022/05/25 01:58:40;;;;;;;;;;;10.00;99.90;;;;;;5024785;28;19940;-78
2022/05/25 02:01:09;;;;;;;;;;;10.00;99.90;;;;;;5023454;28;19925;-78
2022/05/25 02:06:51;;;;;;;;;;;10.00;99.90;;;;;;5008509;28;19926;-79
2022/05/25 02:09:20;;;;;;;;;;;10.00;99.90;;;;;;5008770;28;19941;-78
2022/05/25 02:11:50;;;;;;;;;;;10.00;99.90;;;;;;5023392;28;19926;-77
2022/05/25 02:14:27;;;;;;;;;;;9.90;99.90;;;;;;5024497;28;20367;-78
2022/05/25 02:17:07;;;;;;;;;;;10.00;99.90;;;;;;5004998;28;19936;-79
2022/05/25 02:19:43;;;;;;;;;;;10.00;99.90;;;;;;5018196;28;19926;-79
2022/05/25 02:22:23;;;;;;;;;;;9.90;99.90;;;;;;4999005;28;19933;-79
2022/05/25 02:24:54;;;;;;;;;;;10.00;99.90;;;;;;5014248;28;19926;-78
2022/05/25 02:27:24;;;;;;;;;;;10.10;99.90;;;;;;5018862;28;20026;-78
2022/05/25 02:29:56;;;;;;;;;;;10.00;99.90;;;;;;5023695;28;19941;-78
2022/05/25 02:32:27;;;;;;;;;;;10.00;99.90;;;;;;5022647;28;20016;-79
2022/05/25 02:34:56;;;;;;;;;;;10.00;99.90;;;;;;5005942;28;19926;-79
2022/05/25 02:37:25;;;;;;;;;;;10.00;99.90;;;;;;5005819;28;19929;-79
2022/05/25 02:39:53;;;;;;;;;;;9.90;99.90;;;;;;5005131;28;19929;-79
2022/05/25 02:42:21;;;;;;;;;;;10.00;99.90;;;;;;5006069;28;19952;-77
2022/05/25 02:44:49;;;;;;;;;;;9.70;99.90;;;;;;5004475;28;19926;-79
2022/05/25 02:47:17;;;;;;;;;;;9.90;99.90;;;;;;5004145;28;19926;-79
2022/05/25 02:49:45;;;;;;;;;;;9.90;99.90;;;;;;5003310;28;20392;-78
2022/05/25 02:52:14;;;;;;;;;;;9.90;99.90;;;;;;5003728;28;19936;-78
2022/05/25 02:54:41;;;;;;;;;;;9.90;99.90;;;;;;4968953;28;19930;-78
2022/05/25 02:57:10;;;;;;;;;;;9.80;99.90;;;;;;5003510;28;19926;-78
2022/05/25 02:59:38;;;;;;;;;;;9.80;99.90;;;;;;5002092;28;19933;-78
2022/05/25 03:02:05;;;;;;;;;;;9.80;99.90;;;;;;4984439;28;19949;-78
2022/05/25 03:04:34;;;;;;;;;;;9.80;99.90;;;;;;5007051;28;19933;-78
2022/05/25 03:07:02;;;;;;;;;;;9.80;99.90;;;;;;5005322;28;19940;-79
2022/05/25 03:09:29;;;;;;;;;;;9.90;99.90;;;;;;5006515;28;19926;-78
2022/05/25 03:11:57;;;;;;;;;;;9.90;99.90;;;;;;4989257;28;19936;-77
2022/05/25 03:14:25;;;;;;;;;;;9.90;99.90;;;;;;5005952;28;19940;-78
2022/05/25 03:16:52;;;;;;;;;;;9.90;99.90;;;;;;4989011;28;19933;-79
2022/05/25 03:19:20;;;;;;;;;;;9.90;99.90;;;;;;5005971;28;19926;-79
2022/05/25 03:21:50;;;;;;;;;;;9.90;99.90;;;;;;5007391;28;20302;-78
2022/05/25 03:24:18;;;;;;;;;;;9.90;99.90;;;;;;4972589;28;19934;-79
2022/05/25 03:26:46;;;;;;;;;;;10.00;99.90;;;;;;5006604;28;19925;-78
2022/05/25 03:29:17;;;;;;;;;;;10.00;99.90;;;;;;5005143;28;19930;-78
2022/05/25 03:31:45;;;;;;;;;;;9.90;99.90;;;;;;5005275;28;19926;-78
2022/05/25 03:34:12;;;;;;;;;;;10.00;99.90;;;;;;5006993;28;19937;-80
2022/05/25 03:36:40;;;;;;;;;;;9.90;99.90;;;;;;5006062;28;19926;-78
2022/05/25 03:39:07;;;;;;;;;;;9.70;99.90;;;;;;5005789;28;20059;-79
2022/05/25 03:41:35;;;;;;;;;;;10.20;99.90;;;;;;5006468;28;19930;-79
2022/05/25 03:44:03;;;;;;;;;;;9.90;99.90;;;;;;4972935;28;19929;-79
2022/05/25 03:46:32;;;;;;;;;;;9.90;99.90;;;;;;4988751;28;20252;-79
2022/05/25 03:49:00;;;;;;;;;;;9.90;99.90;;;;;;5006014;28;19926;-78
2022/05/25 03:51:27;;;;;;;;;;;9.90;99.90;;;;;;5003812;28;19948;-79
2022/05/25 03:53:56;;;;;;;;;;;9.90;99.90;;;;;;4970493;28;19925;-78
2022/05/25 03:56:25;;;;;;;;;;;9.90;99.90;;;;;;4986084;28;19949;-79
2022/05/25 03:58:52;;;;;;;;;;;9.90;99.90;;;;;;5004306;28;19936;-78
2022/05/25 04:01:20;;;;;;;;;;;9.90;99.90;;;;;;4970555;28;19933;-78
2022/05/25 04:03:48;;;;;;;;;;;9.90;99.90;;;;;;5004320;28;19926;-78
2022/05/25 04:06:15;;;;;;;;;;;9.90;99.90;;;;;;5005402;28;20280;-79
2022/05/25 04:08:43;;;;;;;;;;;9.90;99.90;;;;;;5005744;28;20366;-78
2022/05/25 04:11:11;;;;;;;;;;;9.90;99.90;;;;;;5005517;28;19940;-78
2022/05/25 04:13:39;;;;;;;;;;;9.90;99.90;;;;;;5006676;28;19936;-78
2022/05/25 04:16:06;;;;;;;;;;;9.90;99.90;;;;;;5005743;28;19932;-78
2022/05/25 04:18:34;;;;;;;;;;;9.90;99.90;;;;;;5005490;28;19940;-78
2022/05/25 04:21:02;;;;;;;;;;;9.90;99.90;;;;;;4983976;28;19926;-78
2022/05/25 04:23:33;;;;;;;;;;;10.00;99.90;;;;;;4999869;28;19933;-78
2022/05/25 04:26:02;;;;;;;;;;;10.00;99.90;;;;;;5001303;28;19960;-79
2022/05/25 04:28:29;;;;;;;;;;;10.00;99.90;;;;;;4965737;28;19934;-79
2022/05/25 04:30:57;;;;;;;;;;;10.10;99.90;;;;;;4969462;28;20429;-78
2022/05/25 04:33:29;;;;;;;;;;;10.10;99.90;;;;;;5003210;28;19949;-79
2022/05/25 04:35:57;;;;;;;;;;;10.10;99.90;;;;;;5024910;28;19925;-78
2022/05/25 04:38:25;;;;;;;;;;;10.10;99.90;;;;;;5023870;28;19932;-78
2022/05/25 04:40:52;;;;;;;;;;;10.10;99.90;;;;;;4990251;28;19937;-79
2022/05/25 04:43:26;;;;;;;;;;;10.20;99.90;;;;;;5004557;28;19926;-78
2022/05/25 04:45:55;;;;;;;;;;;10.20;99.90;;;;;;5005364;28;19941;-78
2022/05/25 04:48:25;;;;;;;;;;;10.20;99.90;;;;;;4986207;28;19930;-78
2022/05/25 04:50:53;;;;;;;;;;;10.30;99.90;;;;;;4996050;28;19941;-79
2022/05/25 04:53:22;;;;;;;;;;;10.30;99.90;;;;;;5002507;28;19941;-78
2022/05/25 04:58:39;;;;;;;;;;;10.30;99.90;;;;;;5003321;28;19933;-78
2022/05/25 05:01:08;;;;;;;;;;;10.30;99.90;;;;;;5001596;28;19949;-78
2022/05/25 05:03:36;;;;;;;;;;;10.30;99.90;;;;;;5002174;28;19933;-78
2022/05/25 05:06:05;;;;;;;;;;;10.40;99.90;;;;;;5005918;28;19930;-77
2022/05/25 05:08:33;;;;;;;;;;;10.40;99.90;;;;;;4986627;28;19934;-77
2022/05/25 05:11:06;;;;;;;;;;;10.40;99.90;;;;;;4985871;28;19949;-78
2022/05/25 05:13:33;;;;;;;;;;;10.40;99.90;;;;;;5001637;28;19930;-78
2022/05/25 05:16:06;;;;;;;;;;;10.40;99.90;;;;;;4985212;28;19929;-78
2022/05/25 05:18:33;;;;;;;;;;;10.40;99.90;;;;;;4985904;28;19930;-78
2022/05/25 05:21:23;;;;;;;;;;;10.40;99.90;;;;;;4985239;28;19930;-79
2022/05/25 05:23:51;;;;;;;;;;;10.40;99.90;;;;;;4983871;28;19952;-79
2022/05/25 05:26:19;;;;;;;;;;;9.90;99.90;;;;;;5001121;28;19972;-79
2022/05/25 05:28:46;;;;;;;;;;;10.30;99.90;;;;;;5001196;28;19933;-77
2022/05/25 05:31:14;;;;;;;;;;;10.50;99.90;;;;;;5000528;28;19930;-78
2022/05/25 05:33:42;;;;;;;;;;;10.50;99.90;;;;;;5000910;28;19933;-79
2022/05/25 05:36:14;;;;;;;;;;;10.60;99.90;;;;;;5000821;28;19930;-80
2022/05/25 05:38:45;;;;;;;;;;;10.60;99.90;;;;;;5000543;28;20161;-78
2022/05/25 05:41:14;;;;;;;;;;;10.70;99.90;;;;;;4985041;28;19925;-79
2022/05/25 05:43:41;;;;;;;;;;;10.70;99.90;;;;;;5007141;28;19930;-77
2022/05/25 05:46:09;;;;;;;;;;;10.80;99.90;;;;;;5001164;28;19961;-78
2022/05/25 05:48:37;;;;;;;;;;;10.90;99.90;;;;;;5002323;28;20411;-79
2022/05/25 05:51:05;;;;;;;;;;;11.00;99.90;;;;;;5002202;28;19926;-79
2022/05/25 05:53:37;;;;;;;;;;;11.10;99.90;;;;;;4984838;28;19929;-79
2022/05/25 05:56:05;;;;;;;;;;;11.30;99.90;;;;;;5001905;28;19926;-78
2022/05/25 05:58:33;;;;;;;;;;;11.40;99.90;;;;;;5003123;28;19962;-78
2022/05/25 06:01:05;;;;;;;;;;;12.70;99.90;;;;;;5002908;28;19945;-78
2022/05/25 06:03:45;;;;;;;;;;;11.70;99.90;;;;;;4981055;28;19929;-79
2022/05/25 06:06:44;;;;;;;;;;;11.80;99.90;;;;;;4999504;28;19929;-78
2022/05/25 06:09:46;;;;;;;;;;;12.00;99.90;;;;;;4930225;29;19931;-78
2022/05/25 06:12:28;;;;;;;;;;;;;;;;;;;;;
2022/05/25 06:22:10;;;;;;;;;;;12.20;99.90;;;;;;4940583;29;19931;-78
2022/05/25 06:24:45;;;;;;;;;;;12.30;99.90;;;;;;4865555;29;19928;-79
2022/05/25 06:27:35;;;;;;;;;;;12.40;99.90;;;;;;4528423;29;9999954;-81
2022/05/25 06:30:02;;;;;;;;;;;12.40;99.90;;;;;;4922243;29;19934;-80
2022/05/25 06:32:31;;;;;;;;;;;12.50;99.90;;;;;;4941068;29;19927;-79
2022/05/25 06:34:59;;;;;;;;;;;12.60;99.90;;;;;;4940927;29;20108;-78
2022/05/25 06:37:30;;;;;;;;;;;12.60;99.90;;;;;;4941229;29;19931;-79
2022/05/25 06:40:00;;;;;;;;;;;12.70;99.90;;;;;;4951587;28;19929;-79
2022/05/25 06:42:29;;;;;;;;;;;12.70;99.90;;;;;;5019700;28;19961;-80
2022/05/25 06:44:57;;;;;;;;;;;12.70;99.90;;;;;;5003950;28;19925;-79
2022/05/25 06:47:27;;;;;;;;;;;12.70;99.90;;;;;;5006290;28;19932;-80
2022/05/25 06:49:55;;;;;;;;;;;12.80;99.90;;;;;;5003397;28;19925;-80
2022/05/25 06:52:23;;;;;;;;;;;12.80;99.90;;;;;;5004469;28;19930;-78
2022/05/25 06:54:59;;;;;;;;;;;12.80;99.90;;;;;;4955119;28;19925;-78
2022/05/25 06:57:26;;;;;;;;;;;12.90;99.90;;;;;;4986801;28;20415;-81
2022/05/25 06:59:55;;;;;;;;;;;13.00;99.90;;;;;;4985814;28;20232;-79
2022/05/25 07:02:24;;;;;;;;;;;13.00;99.90;;;;;;5002428;28;19929;-79
2022/05/25 07:04:53;;;;;;;;;;;13.00;99.90;;;;;;5003371;28;19930;-79
2022/05/25 07:07:21;;;;;;;;;;;13.10;99.90;;;;;;5002371;28;20372;-79
2022/05/25 07:09:50;;;;;;;;;;;13.10;99.90;;;;;;5003129;28;20606;-78
2022/05/25 07:12:19;;;;;;;;;;;13.10;99.90;;;;;;4969642;28;19929;-78
2022/05/25 07:14:47;;;;;;;;;;;13.20;99.90;;;;;;5003100;28;19930;-79
2022/05/25 07:17:14;;;;;;;;;;;13.20;99.90;;;;;;5000241;28;19930;-78
2022/05/25 07:19:42;;;;;;;;;;;13.20;99.90;;;;;;4987461;28;19933;-77
2022/05/25 07:22:11;;;;;;;;;;;13.30;99.90;;;;;;4983979;28;19930;-77
2022/05/25 07:24:49;;;;;;;;;;;13.40;99.90;;;;;;4986468;28;19926;-78
2022/05/25 07:27:17;;;;;;;;;;;13.40;99.90;;;;;;4987273;28;19926;-78
2022/05/25 07:29:45;;;;;;;;;;;13.50;99.90;;;;;;4986742;28;19926;-78
2022/05/25 07:32:14;;;;;;;;;;;13.60;99.90;;;;;;5003142;28;19930;-77
2022/05/25 07:34:50;;;;;;;;;;;13.60;99.90;;;;;;4987474;28;20508;-78
2022/05/25 07:37:21;;;;;;;;;;;13.60;99.90;;;;;;5003610;28;19930;-78
2022/05/25 07:39:51;;;;;;;;;;;13.60;99.90;;;;;;5003791;28;19926;-77
2022/05/25 07:42:22;;;;;;;;;;;13.60;99.90;;;;;;4987938;28;19926;-77
2022/05/25 07:44:57;;;;;;;;;;;13.60;99.90;;;;;;5004557;28;19926;-78
2022/05/25 07:47:26;;;;;;;;;;;13.60;99.90;;;;;;5005171;28;19936;-78
2022/05/25 07:49:54;;;;;;;;;;;13.70;99.90;;;;;;4999454;28;19941;-78
2022/05/25 07:52:23;;;;;;;;;;;13.80;99.90;;;;;;5005339;28;19936;-78
2022/05/25 07:54:51;;;;;;;;;;;13.90;99.90;;;;;;4987803;28;20304;-78
2022/05/25 07:57:18;;;;;;;;;;;14.00;99.90;;;;;;5004348;28;19960;-78
2022/05/25 07:59:46;;;;;;;;;;;14.10;99.90;;;;;;4986467;28;19925;-78
2022/05/25 08:07:54;;;;;;;;;;;14.20;99.90;;;;;;5003223;28;19937;-78
2022/05/25 08:10:23;;;;;;;;;;;14.40;99.90;;;;;;4986550;28;19939;-79
2022/05/25 08:12:55;;;;;;;;;;;14.50;99.90;;;;;;4986009;28;19956;-79
2022/05/25 08:15:23;;;;;;;;;;;14.60;99.90;;;;;;5003034;28;19936;-80
2022/05/25 08:17:51;;;;;;;;;;;14.70;99.90;;;;;;4981417;28;19942;-79
2022/05/25 08:20:19;;;;;;;;;;;14.70;99.90;;;;;;5001985;28;19937;-78
2022/05/25 08:22:47;;;;;;;;;;;14.70;99.90;;;;;;4999601;28;19926;-79
2022/05/25 08:25:16;;;;;;;;;;;14.70;99.90;;;;;;5001464;28;19926;-79
2022/05/25 08:27:44;;;;;;;;;;;14.80;99.90;;;;;;5003156;28;19933;-80
2022/05/25 08:30:22;;;;;;;;;;;14.90;99.90;;;;;;4985671;28;19926;-78
2022/05/25 08:33:20;;;;;;;;;;;15.00;99.90;;;;;;5001514;28;19922;-79
2022/05/25 08:35:51;;;;;;;;;;;15.10;99.90;;;;;;4985941;28;20415;-77
2022/05/25 08:38:31;;;;;;;;;;;15.20;99.90;;;;;;5001244;28;19932;-79
2022/05/25 08:40:59;;;;;;;;;;;15.30;99.90;;;;;;4985073;28;20002;-79
2022/05/25 08:43:39;;;;;;;;;;;15.40;99.90;;;;;;4991514;28;19926;-79
2022/05/25 08:46:13;;;;;;;;;;;15.60;99.90;;;;;;5004689;28;19925;-77
2022/05/25 08:48:44;;;;;;;;;;;15.30;99.90;;;;;;4988181;28;19941;-78
2022/05/25 08:51:33;;;;;;;;;;;15.30;99.90;;;;;;5022837;28;19929;-78
2022/05/25 08:54:01;;;;;;;;;;;15.60;99.90;;;;;;5004119;28;19925;-78
2022/05/25 08:56:45;;;;;;;;;;;15.70;99.90;;;;;;4989897;28;19925;-79
2022/05/25 08:59:32;;;;;;;;;;;15.80;99.90;;;;;;5022468;28;19941;-79
2022/05/25 09:02:12;;;;;;;;;;;15.80;99.90;;;;;;5022564;28;19926;-79
2022/05/25 09:04:55;;;;;;;;;;;16.10;99.90;;;;;;5020052;28;19926;-79
2022/05/25 09:07:33;;;;;;;;;;;15.90;99.80;;;;;;5013685;28;20040;-80
2022/05/25 09:10:00;;;;;;;;;;;15.90;99.90;;;;;;5000596;28;19956;-79
2022/05/25 09:12:33;;;;;;;;;;;15.60;99.60;;;;;;5003235;28;19929;-78
2022/05/25 09:15:03;;;;;;;;;;;16.00;99.50;;;;;;5018856;28;19930;-78
2022/05/25 09:17:30;;;;;;;;;;;16.00;98.90;;;;;;5002386;28;19940;-80
2022/05/25 09:20:02;;;;;;;;;;;16.00;98.90;;;;;;5017858;28;19970;-80
2022/05/25 09:22:35;;;;;;;;;;;16.00;98.90;;;;;;5016406;28;19925;-78
2022/05/25 09:25:04;;;;;;;;;;;16.00;98.70;;;;;;4998574;28;19929;-79
2022/05/25 09:27:36;;;;;;;;;;;16.00;99.00;;;;;;5006346;28;19980;-79
2022/05/25 09:30:04;;;;;;;;;;;16.00;99.20;;;;;;5008352;28;19934;-79
2022/05/25 09:32:41;;;;;;;;;;;16.10;99.30;;;;;;4992388;28;19925;-77
2022/05/25 09:35:09;;;;;;;;;;;16.20;99.20;;;;;;5002340;28;19930;-79
2022/05/25 09:38:10;;;;;;;;;;;16.30;99.00;;;;;;5005308;28;19925;-79
2022/05/25 09:40:38;;;;;;;;;;;16.40;99.20;;;;;;4956383;28;19932;-79
2022/05/25 09:43:08;;;;;;;;;;;16.50;98.70;;;;;;5017235;28;19926;-79
2022/05/25 09:45:42;;;;;;;;;;;16.50;98.70;;;;;;5004149;28;19930;-78
2022/05/25 09:48:14;;;;;;;;;;;16.60;98.30;;;;;;5013294;28;19937;-80
2022/05/25 09:50:44;;;;;;;;;;;16.60;98.30;;;;;;5000483;28;19926;-79
2022/05/25 09:53:15;;;;;;;;;;;16.60;98.20;;;;;;5001377;28;19926;-81
2022/05/25 09:55:43;;;;;;;;;;;16.60;98.30;;;;;;5002356;28;19930;-79
2022/05/25 09:58:22;;;;;;;;;;;16.70;98.30;;;;;;5001724;28;19925;-79
2022/05/25 10:00:58;;;;;;;;;;;16.70;98.40;;;;;;5000172;28;19930;-79
2022/05/25 10:03:36;;;;;;;;;;;16.80;98.40;;;;;;5015707;28;19937;-81
2022/05/25 10:06:16;;;;;;;;;;;16.80;98.40;;;;;;5016925;28;20474;-80
2022/05/25 10:09:09;;;;;;;;;;;16.90;98.00;;;;;;4998967;28;19934;-78
2022/05/25 10:11:43;;;;;;;;;;;16.90;98.30;;;;;;5001508;28;19930;-80
2022/05/25 10:14:29;;;;;;;;;;;16.70;98.50;;;;;;5006253;28;19925;-79
2022/05/25 10:17:14;;;;;;;;;;;16.70;98.90;;;;;;5004576;28;20303;-79
2022/05/25 10:19:47;;;;;;;;;;;16.50;98.80;;;;;;4996750;28;19929;-79
2022/05/25 10:22:33;;;;;;;;;;;16.50;99.20;;;;;;5021375;28;19930;-79
2022/05/25 10:25:04;;;;;;;;;;;16.30;99.60;;;;;;5005681;28;19936;-78
2022/05/25 10:27:42;;;;;;;;;;;16.00;99.90;;;;;;5005622;28;19953;-79
2022/05/25 10:38:48;;;;;;;;;;;15.80;99.90;;;;;;4984437;28;19926;-79
2022/05/25 10:41:38;;;;;;;;;;;15.90;99.90;;;;;;4990074;28;19933;-78
2022/05/25 10:44:21;;;;;;;;;;;16.00;99.90;;;;;;4985677;28;19930;-80
2022/05/25 10:46:53;;;;;;;;;;;16.10;99.90;;;;;;4984602;28;19926;-78
2022/05/25 10:49:35;;;;;;;;;;;16.30;99.90;;;;;;5003767;28;19937;-80
2022/05/25 10:52:21;;;;;;;;;;;16.40;99.90;;;;;;5000463;28;20280;-80
2022/05/25 10:54:50;;;;;;;;;;;16.40;99.90;;;;;;4970043;28;19937;-79
2022/05/25 10:57:39;;;;;;;;;;;16.50;99.90;;;;;;4986375;28;19932;-80
2022/05/25 11:00:13;;;;;;;;;;;16.50;99.90;;;;;;5003845;28;19940;-79
2022/05/25 11:03:00;;;;;;;;;;;16.60;99.90;;;;;;4985258;28;20074;-79
2022/05/25 11:05:34;;;;;;;;;;;16.50;99.90;;;;;;4983034;28;19936;-78
2022/05/25 11:08:09;;;;;;;;;;;16.60;99.90;;;;;;4998790;28;19980;-80
2022/05/25 11:11:00;;;;;;;;;;;16.50;99.90;;;;;;4986754;28;20033;-79
2022/05/25 11:13:43;;;;;;;;;;;16.50;99.90;;;;;;5000007;28;20387;-79
2022/05/25 11:16:26;;;;;;;;;;;16.50;99.90;;;;;;4987008;28;19930;-79
2022/05/25 11:19:17;;;;;;;;;;;16.50;99.90;;;;;;4971535;28;19937;-78
2022/05/25 11:21:55;;;;;;;;;;;16.60;99.90;;;;;;5003452;28;19929;-79
2022/05/25 11:24:29;;;;;;;;;;;16.70;99.90;;;;;;4851770;28;10000212;-78
2022/05/25 11:27:07;;;;;;;;;;;16.70;99.90;;;;;;5004626;28;19930;-79
2022/05/25 11:29:34;;;;;;;;;;;16.80;99.90;;;;;;5004094;28;19934;-80
2022/05/25 11:32:14;;;;;;;;;;;16.80;99.90;;;;;;4986238;28;19937;-79
2022/05/25 11:34:48;;;;;;;;;;;16.80;99.90;;;;;;5005201;28;19940;-79
2022/05/25 11:37:18;;;;;;;;;;;16.80;99.90;;;;;;5002449;28;19926;-80
2022/05/25 11:39:49;;;;;;;;;;;16.00;99.90;;;;;;5000195;28;20224;-79
2022/05/25 11:42:21;;;;;;;;;;;16.70;99.90;;;;;;5002174;28;19934;-79
2022/05/25 11:44:58;;;;;;;;;;;16.60;99.90;;;;;;5005607;28;19926;-78
2022/05/25 11:47:33;;;;;;;;;;;16.50;99.90;;;;;;5023632;28;19930;-79
2022/05/25 11:50:00;;;;;;;;;;;16.30;99.90;;;;;;5023574;28;19925;-79
2022/05/25 11:52:46;;;;;;;;;;;16.40;99.90;;;;;;5021788;28;19926;-79
2022/05/25 11:55:23;;;;;;;;;;;16.40;99.90;;;;;;5020411;28;19930;-80
2022/05/25 11:58:10;;;;;;;;;;;16.40;99.90;;;;;;5005682;28;19926;-79
2022/05/25 12:00:42;;;;;;;;;;;16.40;99.90;;;;;;5019699;28;19929;-79
2022/05/25 12:03:33;;;;;;;;;;;16.50;99.90;;;;;;4989472;28;19956;-80
2022/05/25 12:06:22;;;;;;;;;;;16.60;99.90;;;;;;5020181;28;20033;-78
2022/05/25 12:08:50;;;;;;;;;;;16.60;99.90;;;;;;4991741;28;19936;-79
2022/05/25 12:11:19;;;;;;;;;;;16.70;99.90;;;;;;5006262;28;19948;-79
2022/05/25 12:13:51;;;;;;;;;;;16.70;99.90;;;;;;5009365;28;19926;-79
2022/05/25 12:16:21;;;;;;;;;;;16.80;99.90;;;;;;5004286;28;19937;-79
2022/05/25 12:19:01;;;;;;;;;;;16.90;99.90;;;;;;5019559;28;19930;-79
2022/05/25 12:21:33;;;;;;;;;;;17.10;99.90;;;;;;5023331;28;19936;-79
2022/05/25 12:24:03;;;;;;;;;;;17.40;99.90;;;;;;5023009;28;20263;-79
2022/05/25 12:26:32;;;;;;;;;;;17.50;99.90;;;;;;5021691;28;19926;-80
2022/05/25 12:29:22;;;;;;;;;;;17.60;99.90;;;;;;5021893;28;20213;-79
2022/05/25 12:31:56;;;;;;;;;;;17.70;99.90;;;;;;5022788;28;20340;-78
2022/05/25 12:34:32;;;;;;;;;;;17.60;99.90;;;;;;5022348;28;20340;-78
2022/05/25 12:37:03;;;;;;;;;;;17.40;99.90;;;;;;5003802;28;20056;-79
2022/05/25 12:39:43;;;;;;;;;;;17.20;99.90;;;;;;5016114;28;19929;-78
2022/05/25 12:42:22;;;;;;;;;;;17.10;99.90;;;;;;5019961;28;19932;-78
2022/05/25 12:50:50;;;;;;;;;;;17.10;99.90;;;;;;5002117;28;19930;-76
2022/05/25 12:53:20;;;;;;;;;;;17.40;99.90;;;;;;4998292;28;19940;-81
2022/05/25 12:56:00;;;;;;;;;;;17.00;99.90;;;;;;5000452;28;19932;-78
2022/05/25 12:58:43;;;;;;;;;;;17.00;99.90;;;;;;5000915;28;19932;-78
2022/05/25 13:01:35;;;;;;;;;;;16.90;99.90;;;;;;5002439;28;19941;-80
2022/05/25 13:04:09;;;;;;;;;;;16.80;99.90;;;;;;4980737;28;19937;-78
2022/05/25 13:06:37;;;;;;;;;;;16.90;99.90;;;;;;4999736;28;19956;-79
2022/05/25 13:09:20;;;;;;;;;;;16.80;99.90;;;;;;5000876;28;19926;-79
2022/05/25 13:11:50;;;;;;;;;;;16.80;99.90;;;;;;4999380;28;19925;-79
2022/05/25 13:14:35;;;;;;;;;;;16.80;99.90;;;;;;5001790;28;19929;-78
2022/05/25 13:17:33;;;;;;;;;;;16.70;99.90;;;;;;5012538;28;19934;-78
2022/05/25 13:20:06;;;;;;;;;;;16.70;99.90;;;;;;5001229;28;19930;-78
2022/05/25 13:22:34;;;;;;;;;;;16.60;99.90;;;;;;5010907;28;20434;-78
2022/05/25 13:25:07;;;;;;;;;;;16.70;99.90;;;;;;5002057;28;19945;-78
2022/05/25 13:27:38;;;;;;;;;;;16.70;99.90;;;;;;4982415;28;19936;-79
2022/05/25 13:30:23;;;;;;;;;;;16.70;99.90;;;;;;5002675;28;19925;-79
2022/05/25 13:33:08;;;;;;;;;;;16.70;99.90;;;;;;4999534;28;19936;-80
2022/05/25 13:36:45;;;;;;;;;;;16.80;99.90;;;;;;5001095;28;19930;-80
2022/05/25 13:39:17;;;;;;;;;;;17.00;99.90;;;;;;4984268;28;19930;-80
2022/05/25 13:42:08;;;;;;;;;;;16.90;99.90;;;;;;5001011;28;19932;-80
2022/05/25 13:45:05;;;;;;;;;;;17.10;99.90;;;;;;4974354;28;19922;-80
2022/05/25 13:50:36;;;;;;;;;;;17.20;99.90;;;;;;4984876;28;19926;-81
2022/05/25 13:53:09;;;;;;;;;;;17.40;99.90;;;;;;4998046;28;19930;-81
2022/05/25 13:55:39;;;;;;;;;;;17.90;99.90;;;;;;4998724;28;19964;-80
2022/05/25 13:58:44;;;;;;;;;;;18.40;99.90;;;;;;4995734;28;20094;-81
2022/05/25 14:01:37;;;;;;;;;;;20.00;99.10;;;;;;4998627;28;19929;-80
2022/05/25 14:04:19;;;;;;;;;;;19.10;99.00;;;;;;4996243;28;20433;-84
2022/05/25 14:06:52;;;;;;;;;;;19.80;99.10;;;;;;5003433;28;19932;-81
2022/05/25 14:12:25;;;;;;;;;;;19.40;98.70;;;;;;4998926;28;19937;-82
2022/05/25 14:14:56;;;;;;;;;;;19.40;98.80;;;;;;5000688;28;19929;-82
2022/05/25 14:17:27;;;;;;;;;;;19.30;98.50;;;;;;4993900;28;20591;-82
2022/05/25 14:20:38;;;;;;;;;;;19.20;98.90;;;;;;4996293;28;19932;-82
2022/05/25 14:23:07;;;;;;;;;;;19.20;98.80;;;;;;4986501;28;19929;-84
2022/05/25 14:26:21;;;;;;;;;;;17.70;98.30;;;;;;5000239;28;19936;-80
2022/05/25 14:28:51;;;;;;;;;;;19.60;98.00;;;;;;4983047;28;19930;-81
2022/05/25 14:31:26;;;;;;;;;;;18.70;97.90;;;;;;4983087;28;19940;-81
2022/05/25 14:34:02;;;;;;;;;;;19.50;98.10;;;;;;4982626;28;19930;-81
2022/05/25 14:36:31;;;;;;;;;;;19.30;98.10;;;;;;4997728;28;19926;-81
2022/05/25 14:38:59;;;;;;;;;;;19.00;98.60;;;;;;4981396;28;19936;-80
2022/05/25 14:41:50;;;;;;;;;;;18.80;98.90;;;;;;4984672;28;19939;-81
2022/05/25 14:44:51;;;;;;;;;;;17.40;98.40;;;;;;4978223;28;19918;-81
2022/05/25 14:47:28;;;;;;;;;;;18.50;98.80;;;;;;4905182;28;19930;-83
2022/05/25 14:50:41;;;;;;;;;;;;;;;;;;;;;
2022/05/25 14:53:26;;;;;;;;;;;18.20;99.50;;;;;;4976410;28;19926;-82
2022/05/25 14:56:03;;;;;;;;;;;18.10;99.60;;;;;;5009809;28;19926;-82
2022/05/25 14:58:47;;;;;;;;;;;18.00;99.70;;;;;;5000571;28;19922;-82
2022/05/25 15:01:23;;;;;;;;;;;18.30;99.90;;;;;;5001496;28;19926;-81
2022/05/25 15:03:54;;;;;;;;;;;17.80;99.90;;;;;;4999311;28;19932;-82
2022/05/25 15:06:25;;;;;;;;;;;17.70;99.90;;;;;;4985616;28;19930;-82
2022/05/25 15:08:53;;;;;;;;;;;17.60;99.90;;;;;;5005432;28;19936;-82
2022/05/25 15:11:38;;;;;;;;;;;16.60;99.90;;;;;;4998504;28;19934;-82
2022/05/25 15:20:13;;;;;;;;;;;17.10;99.90;;;;;;5001566;28;20017;-82
2022/05/25 15:22:47;;;;;;;;;;;16.90;99.90;;;;;;5000061;28;19926;-81
2022/05/25 15:25:34;;;;;;;;;;;16.80;99.90;;;;;;4999724;28;19933;-81
2022/05/25 15:28:05;;;;;;;;;;;16.60;99.90;;;;;;5015678;28;20410;-81
2022/05/25 15:30:50;;;;;;;;;;;16.50;99.90;;;;;;4999573;28;19941;-82
2022/05/25 15:33:19;;;;;;;;;;;16.40;99.90;;;;;;4999662;28;19936;-80
2022/05/25 15:35:50;;;;;;;;;;;16.50;99.90;;;;;;5000436;28;19945;-80
2022/05/25 15:38:27;;;;;;;;;;;16.60;99.90;;;;;;5001835;28;19934;-81
2022/05/25 15:40:55;;;;;;;;;;;16.90;99.90;;;;;;5015570;28;19936;-82
2022/05/25 15:43:25;;;;;;;;;;;17.20;99.90;;;;;;4998235;28;19941;-80
2022/05/25 15:46:01;;;;;;;;;;;17.70;99.90;;;;;;4983139;28;20292;-81
2022/05/25 15:48:29;;;;;;;;;;;17.90;99.90;;;;;;4984436;28;19941;-81